RYR378 EGFF-EIKN
Flight info
| Callsign | RYR378 |
|---|---|
| Flight time | 0h 53m |
| Altitude | 34000 |
| Route | ETNAH DCT TIZDU P4 FELCA L9 ACCAQ DCT LANON L18 LIPGO DCT IFBAP DCT OLAPO DCT EDONO EDONO1C |
| Aircraft | B738/M-SDE2E3FGHIRWXY/LB1 |
Departure
| Time | 2026-04-29 20:10 |
|---|---|
| Airport | Cardiff International Airport (EGFF) |
Arrival
| Time | 2026-04-29 21:04 |
|---|---|
| Airport | Ireland West Airport Knock (EIKN) |
| Time | Latitude | Longitude | Altitude | Speed | Heading |
|---|---|---|---|---|---|
| 2026-04-29 19:53 | 51.39806 | -3.33936 | 220 ft | 0 kts | 83° |
| 2026-04-29 20:03 | 51.39803 | -3.33961 | 220 ft | 2 kts | 73° |
| 2026-04-29 20:03 | 51.39797 | -3.33985 | 222 ft | 2 kts | 58° |
| 2026-04-29 20:03 | 51.39787 | -3.34006 | 224 ft | 2 kts | 36° |
| 2026-04-29 20:04 | 51.39772 | -3.34017 | 220 ft | 2 kts | 9° |
| 2026-04-29 20:04 | 51.39756 | -3.34017 | 223 ft | 2 kts | 341° |
| 2026-04-29 20:04 | 51.39746 | -3.34009 | 221 ft | 1 kts | 312° |
| 2026-04-29 20:04 | 51.39745 | -3.34008 | 221 ft | 0 kts | 307° |
| 2026-04-29 20:06 | 51.39746 | -3.34010 | 221 ft | 1 kts | 307° |
| 2026-04-29 20:06 | 51.39758 | -3.34049 | 222 ft | 7 kts | 295° |
| 2026-04-29 20:06 | 51.39790 | -3.34157 | 220 ft | 14 kts | 297° |
| 2026-04-29 20:07 | 51.39845 | -3.34330 | 220 ft | 20 kts | 297° |
| 2026-04-29 20:07 | 51.39913 | -3.34543 | 222 ft | 22 kts | 296° |
| 2026-04-29 20:07 | 51.39980 | -3.34755 | 222 ft | 21 kts | 297° |
| 2026-04-29 20:07 | 51.40044 | -3.34961 | 223 ft | 20 kts | 296° |
| 2026-04-29 20:08 | 51.40099 | -3.35138 | 224 ft | 15 kts | 296° |
| 2026-04-29 20:08 | 51.40126 | -3.35223 | 222 ft | 10 kts | 297° |
| 2026-04-29 20:08 | 51.40154 | -3.35360 | 222 ft | 10 kts | 270° |
| 2026-04-29 20:08 | 51.40132 | -3.35457 | 222 ft | 9 kts | 232° |
| 2026-04-29 20:09 | 51.40076 | -3.35522 | 219 ft | 9 kts | 209° |
| 2026-04-29 20:09 | 51.40033 | -3.35505 | 220 ft | 7 kts | 126° |
| 2026-04-29 20:09 | 51.40019 | -3.35460 | 219 ft | 4 kts | 115° |
| 2026-04-29 20:09 | 51.40003 | -3.35407 | 219 ft | 10 kts | 116° |
| 2026-04-29 20:10 | 51.39864 | -3.34972 | 219 ft | 79 kts | 117° |
| 2026-04-29 20:10 | 51.39515 | -3.33863 | 222 ft | 142 kts | 117° |
| 2026-04-29 20:10 | 51.39017 | -3.32361 | 768 ft | 152 kts | 110° |
| 2026-04-29 20:10 | 51.38581 | -3.30900 | 1860 ft | 138 kts | 108° |
| 2026-04-29 20:11 | 51.38182 | -3.29572 | 2846 ft | 135 kts | 111° |
| 2026-04-29 20:11 | 51.37738 | -3.28084 | 3300 ft | 165 kts | 113° |
| 2026-04-29 20:11 | 51.37213 | -3.26338 | 3767 ft | 179 kts | 114° |
| 2026-04-29 20:11 | 51.36629 | -3.24405 | 4031 ft | 208 kts | 115° |
| 2026-04-29 20:12 | 51.35964 | -3.22208 | 4526 ft | 227 kts | 114° |
| 2026-04-29 20:12 | 51.35509 | -3.19744 | 5102 ft | 241 kts | 98° |
| 2026-04-29 20:12 | 51.35649 | -3.17048 | 5337 ft | 247 kts | 79° |
| 2026-04-29 20:12 | 51.36407 | -3.14557 | 5582 ft | 253 kts | 59° |
| 2026-04-29 20:13 | 51.37738 | -3.12623 | 5839 ft | 268 kts | 37° |
| 2026-04-29 20:13 | 51.39545 | -3.11626 | 5993 ft | 285 kts | 12° |
| 2026-04-29 20:13 | 51.41552 | -3.11944 | 6011 ft | 295 kts | 351° |
| 2026-04-29 20:13 | 51.43534 | -3.12833 | 6005 ft | 297 kts | 348° |
| 2026-04-29 20:14 | 51.45483 | -3.13795 | 6000 ft | 296 kts | 348° |
| 2026-04-29 20:14 | 51.47452 | -3.14744 | 6001 ft | 295 kts | 348° |
| 2026-04-29 20:14 | 51.49425 | -3.15668 | 6005 ft | 295 kts | 349° |
| 2026-04-29 20:14 | 51.51397 | -3.16579 | 6010 ft | 294 kts | 349° |
| 2026-04-29 20:15 | 51.53366 | -3.17483 | 5994 ft | 294 kts | 349° |
| 2026-04-29 20:15 | 51.55337 | -3.18386 | 5998 ft | 294 kts | 349° |
| 2026-04-29 20:15 | 51.57312 | -3.19290 | 5995 ft | 294 kts | 349° |
| 2026-04-29 20:15 | 51.59284 | -3.20195 | 6013 ft | 294 kts | 349° |
| 2026-04-29 20:16 | 51.61226 | -3.21087 | 6147 ft | 294 kts | 349° |
| 2026-04-29 20:16 | 51.63187 | -3.21989 | 6150 ft | 293 kts | 349° |
| 2026-04-29 20:16 | 51.65148 | -3.22890 | 6168 ft | 294 kts | 349° |
| 2026-04-29 20:16 | 51.67120 | -3.23796 | 6174 ft | 296 kts | 349° |
| 2026-04-29 20:17 | 51.69109 | -3.24712 | 6164 ft | 298 kts | 349° |
| 2026-04-29 20:17 | 51.71105 | -3.25656 | 6149 ft | 300 kts | 345° |
| 2026-04-29 20:17 | 51.72873 | -3.27470 | 6160 ft | 307 kts | 315° |
| 2026-04-29 20:17 | 51.74095 | -3.30325 | 6571 ft | 314 kts | 300° |
| 2026-04-29 20:18 | 51.75172 | -3.33388 | 7527 ft | 312 kts | 299° |
| 2026-04-29 20:18 | 51.76248 | -3.36429 | 8490 ft | 313 kts | 300° |
| 2026-04-29 20:18 | 51.77327 | -3.39449 | 9381 ft | 315 kts | 300° |
| 2026-04-29 20:18 | 51.78434 | -3.42543 | 10202 ft | 321 kts | 299° |
| 2026-04-29 20:19 | 51.79566 | -3.45700 | 10739 ft | 334 kts | 300° |
| 2026-04-29 20:19 | 51.80777 | -3.49082 | 10962 ft | 359 kts | 300° |
| 2026-04-29 20:19 | 51.82031 | -3.52650 | 11519 ft | 369 kts | 296° |
| 2026-04-29 20:19 | 51.82930 | -3.56542 | 12290 ft | 371 kts | 281° |
| 2026-04-29 20:20 | 51.83444 | -3.60647 | 13148 ft | 372 kts | 278° |
| 2026-04-29 20:20 | 51.83934 | -3.64777 | 13996 ft | 375 kts | 278° |
| 2026-04-29 20:20 | 51.84460 | -3.68935 | 14676 ft | 380 kts | 279° |
| 2026-04-29 20:20 | 51.85009 | -3.73079 | 15393 ft | 383 kts | 279° |
| 2026-04-29 20:21 | 51.85574 | -3.77316 | 16132 ft | 386 kts | 279° |
| 2026-04-29 20:21 | 51.86322 | -3.81512 | 16800 ft | 394 kts | 293° |
| 2026-04-29 20:21 | 51.87869 | -3.85194 | 17453 ft | 400 kts | 314° |
| 2026-04-29 20:21 | 51.90093 | -3.87893 | 18160 ft | 401 kts | 332° |
| 2026-04-29 20:22 | 51.92538 | -3.90118 | 18797 ft | 405 kts | 332° |
| 2026-04-29 20:22 | 51.95032 | -3.92345 | 19313 ft | 412 kts | 332° |
| 2026-04-29 20:22 | 51.97532 | -3.94586 | 19828 ft | 418 kts | 332° |
| 2026-04-29 20:22 | 52.00063 | -3.96880 | 20614 ft | 414 kts | 332° |
| 2026-04-29 20:23 | 52.02578 | -3.99184 | 21233 ft | 417 kts | 332° |
| 2026-04-29 20:23 | 52.05129 | -4.01539 | 21722 ft | 424 kts | 331° |
| 2026-04-29 20:23 | 52.07710 | -4.03935 | 22240 ft | 429 kts | 331° |
| 2026-04-29 20:23 | 52.10310 | -4.06357 | 22809 ft | 432 kts | 330° |
| 2026-04-29 20:24 | 52.12924 | -4.08797 | 23377 ft | 435 kts | 330° |
| 2026-04-29 20:24 | 52.15560 | -4.11261 | 23885 ft | 439 kts | 330° |
| 2026-04-29 20:24 | 52.18219 | -4.13750 | 24312 ft | 442 kts | 330° |
| 2026-04-29 20:24 | 52.20901 | -4.16263 | 24767 ft | 445 kts | 330° |
| 2026-04-29 20:25 | 52.23594 | -4.18790 | 25199 ft | 448 kts | 330° |
| 2026-04-29 20:25 | 52.26302 | -4.21334 | 25611 ft | 451 kts | 330° |
| 2026-04-29 20:25 | 52.29032 | -4.23902 | 26032 ft | 454 kts | 330° |
| 2026-04-29 20:25 | 52.31742 | -4.26456 | 26467 ft | 456 kts | 330° |
| 2026-04-29 20:26 | 52.34508 | -4.29066 | 26888 ft | 459 kts | 330° |
| 2026-04-29 20:26 | 52.37280 | -4.31684 | 27296 ft | 462 kts | 330° |
| 2026-04-29 20:26 | 52.40072 | -4.34326 | 27698 ft | 464 kts | 330° |
| 2026-04-29 20:26 | 52.42813 | -4.37164 | 28083 ft | 468 kts | 323° |
| 2026-04-29 20:27 | 52.45275 | -4.40663 | 28431 ft | 470 kts | 313° |
| 2026-04-29 20:27 | 52.46768 | -4.43252 | 28679 ft | 472 kts | 312° |
| 2026-04-29 20:27 | 52.49744 | -4.48602 | 29203 ft | 476 kts | 311° |
| 2026-04-29 20:27 | 52.51955 | -4.52593 | 29505 ft | 479 kts | 311° |
| 2026-04-29 20:28 | 52.54218 | -4.56643 | 29809 ft | 483 kts | 312° |
| 2026-04-29 20:28 | 52.56507 | -4.60697 | 30162 ft | 485 kts | 312° |
| 2026-04-29 20:28 | 52.58806 | -4.64751 | 30569 ft | 484 kts | 312° |
| 2026-04-29 20:28 | 52.61106 | -4.68800 | 31016 ft | 482 kts | 312° |
| 2026-04-29 20:29 | 52.63391 | -4.72830 | 31448 ft | 481 kts | 312° |
| 2026-04-29 20:29 | 52.65675 | -4.76870 | 31824 ft | 481 kts | 311° |
| 2026-04-29 20:29 | 52.67952 | -4.80905 | 32175 ft | 481 kts | 311° |
| 2026-04-29 20:29 | 52.70231 | -4.84944 | 32559 ft | 480 kts | 311° |
| 2026-04-29 20:30 | 52.72504 | -4.88978 | 32953 ft | 479 kts | 311° |
| 2026-04-29 20:30 | 52.74775 | -4.93014 | 33308 ft | 479 kts | 311° |
| 2026-04-29 20:30 | 52.77038 | -4.97044 | 33678 ft | 478 kts | 311° |
| 2026-04-29 20:30 | 52.79265 | -5.01015 | 34059 ft | 477 kts | 311° |
| 2026-04-29 20:31 | 52.81524 | -5.05053 | 34275 ft | 479 kts | 311° |
| 2026-04-29 20:31 | 52.83804 | -5.09138 | 34238 ft | 484 kts | 310° |
| 2026-04-29 20:31 | 52.88349 | -5.17297 | 34229 ft | 478 kts | 310° |
| 2026-04-29 20:32 | 52.92802 | -5.25317 | 34245 ft | 475 kts | 310° |
| 2026-04-29 20:32 | 52.96555 | -5.32098 | 34255 ft | 477 kts | 310° |
| 2026-04-29 20:33 | 53.01773 | -5.41559 | 34254 ft | 478 kts | 310° |
| 2026-04-29 20:33 | 53.06256 | -5.49756 | 34255 ft | 479 kts | 308° |
| 2026-04-29 20:34 | 53.10219 | -5.58621 | 34256 ft | 477 kts | 301° |
| 2026-04-29 20:34 | 53.13921 | -5.67790 | 34250 ft | 477 kts | 301° |
| 2026-04-29 20:35 | 53.17619 | -5.76899 | 34259 ft | 476 kts | 301° |
| 2026-04-29 20:35 | 53.21366 | -5.86006 | 34256 ft | 473 kts | 301° |
| 2026-04-29 20:36 | 53.23228 | -5.90513 | 33903 ft | 469 kts | 301° |
| 2026-04-29 20:36 | 53.25058 | -5.94947 | 33586 ft | 460 kts | 301° |
| 2026-04-29 20:36 | 53.26871 | -5.99349 | 33202 ft | 456 kts | 301° |
| 2026-04-29 20:36 | 53.28661 | -6.03709 | 32798 ft | 452 kts | 301° |
| 2026-04-29 20:37 | 53.30409 | -6.07973 | 32420 ft | 448 kts | 301° |
| 2026-04-29 20:37 | 53.32161 | -6.12260 | 32042 ft | 445 kts | 301° |
| 2026-04-29 20:37 | 53.33902 | -6.16526 | 31663 ft | 441 kts | 301° |
| 2026-04-29 20:37 | 53.35626 | -6.20757 | 31303 ft | 438 kts | 301° |
| 2026-04-29 20:38 | 53.37341 | -6.24974 | 30926 ft | 436 kts | 301° |
| 2026-04-29 20:38 | 53.39041 | -6.29160 | 30559 ft | 434 kts | 301° |
| 2026-04-29 20:38 | 53.40735 | -6.33338 | 30174 ft | 432 kts | 301° |
| 2026-04-29 20:38 | 53.42416 | -6.37492 | 29736 ft | 429 kts | 301° |
| 2026-04-29 20:39 | 53.44082 | -6.41613 | 29375 ft | 424 kts | 301° |
| 2026-04-29 20:39 | 53.45730 | -6.45696 | 28977 ft | 421 kts | 301° |
| 2026-04-29 20:39 | 53.47366 | -6.49757 | 28614 ft | 417 kts | 301° |
| 2026-04-29 20:39 | 53.48968 | -6.53740 | 28228 ft | 414 kts | 301° |
| 2026-04-29 20:40 | 53.50571 | -6.57734 | 27872 ft | 411 kts | 301° |
| 2026-04-29 20:40 | 53.52166 | -6.61710 | 27493 ft | 408 kts | 301° |
| 2026-04-29 20:40 | 53.53747 | -6.65658 | 27115 ft | 406 kts | 301° |
| 2026-04-29 20:40 | 53.55307 | -6.69605 | 26758 ft | 403 kts | 301° |
| 2026-04-29 20:41 | 53.56826 | -6.73547 | 26408 ft | 400 kts | 300° |
| 2026-04-29 20:41 | 53.58324 | -6.77480 | 26078 ft | 397 kts | 299° |
| 2026-04-29 20:41 | 53.59810 | -6.81390 | 25710 ft | 396 kts | 299° |
| 2026-04-29 20:41 | 53.61293 | -6.85293 | 25352 ft | 394 kts | 299° |
| 2026-04-29 20:42 | 53.62747 | -6.89120 | 25000 ft | 392 kts | 299° |
| 2026-04-29 20:42 | 53.64217 | -6.92988 | 24643 ft | 391 kts | 299° |
| 2026-04-29 20:42 | 53.65682 | -6.96845 | 24301 ft | 389 kts | 299° |
| 2026-04-29 20:42 | 53.67140 | -7.00688 | 23951 ft | 388 kts | 299° |
| 2026-04-29 20:43 | 53.68592 | -7.04521 | 23548 ft | 387 kts | 299° |
| 2026-04-29 20:43 | 53.70037 | -7.08340 | 23162 ft | 385 kts | 299° |
| 2026-04-29 20:43 | 53.70991 | -7.10865 | 22906 ft | 384 kts | 299° |
| 2026-04-29 20:43 | 53.72421 | -7.14655 | 22541 ft | 382 kts | 299° |
| 2026-04-29 20:44 | 53.73847 | -7.18439 | 22188 ft | 380 kts | 299° |
| 2026-04-29 20:44 | 53.75259 | -7.22190 | 21841 ft | 377 kts | 299° |
| 2026-04-29 20:44 | 53.77115 | -7.27132 | 21383 ft | 374 kts | 300° |
| 2026-04-29 20:44 | 53.78572 | -7.30775 | 21031 ft | 373 kts | 306° |
| 2026-04-29 20:45 | 53.79690 | -7.33063 | 20833 ft | 372 kts | 309° |
| 2026-04-29 20:45 | 53.81387 | -7.36312 | 20496 ft | 370 kts | 310° |
| 2026-04-29 20:45 | 53.83107 | -7.39546 | 20156 ft | 369 kts | 310° |
| 2026-04-29 20:45 | 53.84816 | -7.42779 | 19816 ft | 367 kts | 310° |
| 2026-04-29 20:46 | 53.86511 | -7.46022 | 19477 ft | 366 kts | 309° |
| 2026-04-29 20:46 | 53.88190 | -7.49265 | 19140 ft | 365 kts | 309° |
| 2026-04-29 20:46 | 53.89837 | -7.52467 | 18809 ft | 364 kts | 309° |
| 2026-04-29 20:46 | 53.91495 | -7.55701 | 18466 ft | 363 kts | 309° |
| 2026-04-29 20:47 | 53.93147 | -7.58927 | 18085 ft | 362 kts | 309° |
| 2026-04-29 20:47 | 53.94793 | -7.62148 | 17733 ft | 360 kts | 309° |
| 2026-04-29 20:47 | 53.96432 | -7.65361 | 17384 ft | 358 kts | 308° |
| 2026-04-29 20:47 | 53.97709 | -7.68911 | 17060 ft | 349 kts | 284° |
| 2026-04-29 20:48 | 53.98094 | -7.72831 | 16770 ft | 336 kts | 264° |
| 2026-04-29 20:48 | 53.97759 | -7.76673 | 16426 ft | 324 kts | 246° |
| 2026-04-29 20:48 | 53.97002 | -7.80237 | 16122 ft | 319 kts | 242° |
| 2026-04-29 20:48 | 53.96179 | -7.83733 | 15791 ft | 317 kts | 242° |
| 2026-04-29 20:49 | 53.95351 | -7.87196 | 15479 ft | 315 kts | 242° |
| 2026-04-29 20:49 | 53.94534 | -7.90645 | 15181 ft | 314 kts | 242° |
| 2026-04-29 20:49 | 53.93725 | -7.94088 | 14859 ft | 313 kts | 242° |
| 2026-04-29 20:49 | 53.92933 | -7.97488 | 14546 ft | 312 kts | 242° |
| 2026-04-29 20:50 | 53.92138 | -8.00913 | 14231 ft | 312 kts | 242° |
| 2026-04-29 20:50 | 53.91344 | -8.04341 | 13895 ft | 311 kts | 242° |
| 2026-04-29 20:50 | 53.90552 | -8.07761 | 13551 ft | 310 kts | 243° |
| 2026-04-29 20:50 | 53.89775 | -8.11113 | 13226 ft | 308 kts | 243° |
| 2026-04-29 20:51 | 53.88993 | -8.14480 | 12905 ft | 306 kts | 243° |
| 2026-04-29 20:51 | 53.88220 | -8.17840 | 12600 ft | 305 kts | 245° |
| 2026-04-29 20:51 | 53.87674 | -8.21319 | 12349 ft | 305 kts | 253° |
| 2026-04-29 20:51 | 53.87284 | -8.24859 | 12046 ft | 305 kts | 255° |
| 2026-04-29 20:52 | 53.86919 | -8.28448 | 11547 ft | 311 kts | 255° |
| 2026-04-29 20:52 | 53.86546 | -8.32056 | 11198 ft | 311 kts | 255° |
| 2026-04-29 20:52 | 53.86163 | -8.35662 | 10869 ft | 310 kts | 255° |
| 2026-04-29 20:52 | 53.85772 | -8.39240 | 10549 ft | 309 kts | 255° |
| 2026-04-29 20:53 | 53.85378 | -8.42778 | 10275 ft | 306 kts | 255° |
| 2026-04-29 20:53 | 53.84983 | -8.46280 | 10140 ft | 298 kts | 255° |
| 2026-04-29 20:53 | 53.84595 | -8.49687 | 9958 ft | 292 kts | 255° |
| 2026-04-29 20:53 | 53.84209 | -8.53053 | 9650 ft | 290 kts | 255° |
| 2026-04-29 20:54 | 53.83439 | -8.59712 | 9092 ft | 286 kts | 255° |
| 2026-04-29 20:54 | 53.83055 | -8.63020 | 8809 ft | 284 kts | 255° |
| 2026-04-29 20:54 | 53.82674 | -8.66296 | 8533 ft | 283 kts | 255° |
| 2026-04-29 20:55 | 53.82293 | -8.69564 | 8251 ft | 282 kts | 255° |
| 2026-04-29 20:55 | 53.81913 | -8.72811 | 7974 ft | 280 kts | 255° |
| 2026-04-29 20:55 | 53.81534 | -8.76037 | 7700 ft | 279 kts | 255° |
| 2026-04-29 20:55 | 53.81161 | -8.79212 | 7433 ft | 278 kts | 255° |
| 2026-04-29 20:56 | 53.80782 | -8.82423 | 7156 ft | 278 kts | 255° |
| 2026-04-29 20:56 | 53.80403 | -8.85623 | 6880 ft | 277 kts | 255° |
| 2026-04-29 20:56 | 53.80025 | -8.88815 | 6603 ft | 276 kts | 255° |
| 2026-04-29 20:56 | 53.79649 | -8.91991 | 6324 ft | 275 kts | 255° |
| 2026-04-29 20:57 | 53.79274 | -8.95147 | 6073 ft | 271 kts | 255° |
| 2026-04-29 20:57 | 53.78906 | -8.98230 | 5809 ft | 263 kts | 255° |
| 2026-04-29 20:57 | 53.78548 | -9.01227 | 5523 ft | 256 kts | 255° |
| 2026-04-29 20:57 | 53.78215 | -9.04151 | 5266 ft | 251 kts | 260° |
| 2026-04-29 20:58 | 53.78458 | -9.07021 | 5031 ft | 247 kts | 296° |
| 2026-04-29 20:58 | 53.79525 | -9.09197 | 4759 ft | 239 kts | 327° |
| 2026-04-29 20:58 | 53.80974 | -9.10341 | 4510 ft | 228 kts | 350° |
| 2026-04-29 20:58 | 53.82506 | -9.10870 | 4271 ft | 222 kts | 354° |
| 2026-04-29 20:59 | 53.84009 | -9.11364 | 4023 ft | 217 kts | 353° |
| 2026-04-29 20:59 | 53.85485 | -9.11780 | 3774 ft | 212 kts | 5° |
| 2026-04-29 20:59 | 53.86789 | -9.11103 | 3590 ft | 191 kts | 46° |
| 2026-04-29 20:59 | 53.87625 | -9.09439 | 3397 ft | 183 kts | 70° |
| 2026-04-29 21:00 | 53.87990 | -9.07426 | 3194 ft | 176 kts | 84° |
| 2026-04-29 21:00 | 53.88234 | -9.05394 | 2986 ft | 176 kts | 84° |
| 2026-04-29 21:00 | 53.88478 | -9.03364 | 2805 ft | 175 kts | 84° |
| 2026-04-29 21:00 | 53.88716 | -9.01377 | 2618 ft | 169 kts | 83° |
| 2026-04-29 21:01 | 53.88945 | -8.99467 | 2436 ft | 161 kts | 83° |
| 2026-04-29 21:01 | 53.89163 | -8.97639 | 2227 ft | 155 kts | 83° |
| 2026-04-29 21:01 | 53.89372 | -8.95888 | 2060 ft | 149 kts | 83° |
| 2026-04-29 21:01 | 53.89572 | -8.94207 | 1853 ft | 140 kts | 83° |
| 2026-04-29 21:02 | 53.89755 | -8.92671 | 1731 ft | 125 kts | 83° |
| 2026-04-29 21:02 | 53.89930 | -8.91187 | 1556 ft | 129 kts | 83° |
| 2026-04-29 21:02 | 53.90103 | -8.89725 | 1381 ft | 127 kts | 83° |
| 2026-04-29 21:02 | 53.90270 | -8.88261 | 1227 ft | 126 kts | 83° |
| 2026-04-29 21:03 | 53.90433 | -8.86767 | 1011 ft | 133 kts | 79° |
| 2026-04-29 21:03 | 53.90626 | -8.85229 | 841 ft | 134 kts | 79° |
| 2026-04-29 21:03 | 53.90818 | -8.83669 | 695 ft | 137 kts | 80° |
| 2026-04-29 21:03 | 53.90994 | -8.82155 | 651 ft | 113 kts | 79° |
| 2026-04-29 21:04 | 53.91107 | -8.81197 | 650 ft | 56 kts | 78° |
| 2026-04-29 21:04 | 53.91161 | -8.80742 | 655 ft | 33 kts | 78° |
| 2026-04-29 21:04 | 53.91201 | -8.80396 | 654 ft | 28 kts | 79° |
| 2026-04-29 21:04 | 53.91226 | -8.80188 | 650 ft | 10 kts | 78° |
| 2026-04-29 21:05 | 53.91260 | -8.80095 | 650 ft | 9 kts | 50° |
| 2026-04-29 21:05 | 53.91282 | -8.80019 | 650 ft | 6 kts | 90° |
| 2026-04-29 21:05 | 53.91252 | -8.80002 | 650 ft | 5 kts | 218° |
| 2026-04-29 21:05 | 53.91238 | -8.80074 | 650 ft | 9 kts | 257° |
| 2026-04-29 21:06 | 53.91219 | -8.80237 | 651 ft | 18 kts | 259° |
| 2026-04-29 21:06 | 53.91190 | -8.80481 | 652 ft | 24 kts | 257° |
| 2026-04-29 21:06 | 53.91163 | -8.80699 | 653 ft | 14 kts | 258° |
| 2026-04-29 21:06 | 53.91154 | -8.80773 | 653 ft | 7 kts | 259° |
| 2026-04-29 21:07 | 53.91152 | -8.80799 | 653 ft | 7 kts | 266° |
| 2026-04-29 21:07 | 53.91179 | -8.80865 | 653 ft | 7 kts | 334° |
| 2026-04-29 21:07 | 53.91236 | -8.80885 | 653 ft | 9 kts | 349° |
| 2026-04-29 21:07 | 53.91297 | -8.80905 | 651 ft | 8 kts | 349° |
| 2026-04-29 21:08 | 53.91336 | -8.80918 | 651 ft | 4 kts | 346° |
| 2026-04-29 21:08 | 53.91349 | -8.80958 | 651 ft | 4 kts | 267° |
| 2026-04-29 21:08 | 53.91345 | -8.80998 | 652 ft | 1 kts | 258° |
| 2026-04-29 21:08 | 53.91344 | -8.81001 | 652 ft | 0 kts | 258° |